sensor_id;sensor_type;location;lat;lon;timestamp;temperature;humidity
37340;DHT22;23223;51.006;7.610;2024-02-23T00:02:04;6.10;99.90
37340;DHT22;23223;51.006;7.610;2024-02-23T00:04:30;6.10;99.90
37340;DHT22;23223;51.006;7.610;2024-02-23T00:06:56;6.10;99.90
37340;DHT22;23223;51.006;7.610;2024-02-23T00:09:22;6.10;99.90
37340;DHT22;23223;51.006;7.610;2024-02-23T00:11:47;6.00;99.90
37340;DHT22;23223;51.006;7.610;2024-02-23T00:14:15;6.00;99.90
37340;DHT22;23223;51.006;7.610;2024-02-23T00:16:43;6.00;99.90
37340;DHT22;23223;51.006;7.610;2024-02-23T00:19:09;6.00;99.90
37340;DHT22;23223;51.006;7.610;2024-02-23T00:21:39;6.00;99.90
37340;DHT22;23223;51.006;7.610;2024-02-23T00:24:08;6.00;99.90
37340;DHT22;23223;51.006;7.610;2024-02-23T00:26:33;6.00;99.90
37340;DHT22;23223;51.006;7.610;2024-02-23T00:28:59;6.00;99.90
37340;DHT22;23223;51.006;7.610;2024-02-23T00:31:24;5.90;99.90
37340;DHT22;23223;51.006;7.610;2024-02-23T00:33:50;5.80;99.90
37340;DHT22;23223;51.006;7.610;2024-02-23T00:36:16;5.80;99.90
37340;DHT22;23223;51.006;7.610;2024-02-23T00:38:42;5.80;99.90
37340;DHT22;23223;51.006;7.610;2024-02-23T00:41:07;5.90;99.90
37340;DHT22;23223;51.006;7.610;2024-02-23T00:43:40;5.90;99.90
37340;DHT22;23223;51.006;7.610;2024-02-23T00:46:06;5.90;99.90
37340;DHT22;23223;51.006;7.610;2024-02-23T00:48:32;5.90;99.90
37340;DHT22;23223;51.006;7.610;2024-02-23T00:50:58;6.00;99.90
37340;DHT22;23223;51.006;7.610;2024-02-23T00:53:23;5.90;99.90
37340;DHT22;23223;51.006;7.610;2024-02-23T00:55:49;5.90;99.90
37340;DHT22;23223;51.006;7.610;2024-02-23T00:58:15;5.90;99.90
37340;DHT22;23223;51.006;7.610;2024-02-23T01:00:41;5.80;99.90
37340;DHT22;23223;51.006;7.610;2024-02-23T01:03:07;5.70;99.90
37340;DHT22;23223;51.006;7.610;2024-02-23T01:05:32;5.50;99.90
37340;DHT22;23223;51.006;7.610;2024-02-23T01:07:58;5.40;99.90
37340;DHT22;23223;51.006;7.610;2024-02-23T01:10:24;5.40;99.90
37340;DHT22;23223;51.006;7.610;2024-02-23T01:12:49;5.30;99.90
37340;DHT22;23223;51.006;7.610;2024-02-23T01:15:15;5.30;99.90
37340;DHT22;23223;51.006;7.610;2024-02-23T01:17:40;5.30;99.90
37340;DHT22;23223;51.006;7.610;2024-02-23T01:20:06;5.20;99.90
37340;DHT22;23223;51.006;7.610;2024-02-23T01:22:32;5.20;99.90
37340;DHT22;23223;51.006;7.610;2024-02-23T01:24:58;5.10;99.90
37340;DHT22;23223;51.006;7.610;2024-02-23T01:27:23;5.10;99.90
37340;DHT22;23223;51.006;7.610;2024-02-23T01:29:49;5.10;99.90
37340;DHT22;23223;51.006;7.610;2024-02-23T01:32:14;5.10;99.90
37340;DHT22;23223;51.006;7.610;2024-02-23T01:34:40;5.10;99.90
37340;DHT22;23223;51.006;7.610;2024-02-23T01:37:05;5.10;99.90
37340;DHT22;23223;51.006;7.610;2024-02-23T01:39:31;5.00;99.90
37340;DHT22;23223;51.006;7.610;2024-02-23T01:41:57;4.90;99.90
37340;DHT22;23223;51.006;7.610;2024-02-23T01:44:22;5.00;99.90
37340;DHT22;23223;51.006;7.610;2024-02-23T01:46:50;5.10;99.90
37340;DHT22;23223;51.006;7.610;2024-02-23T01:49:16;5.10;99.90
37340;DHT22;23223;51.006;7.610;2024-02-23T01:51:42;5.00;99.90
37340;DHT22;23223;51.006;7.610;2024-02-23T01:54:08;4.90;99.90
37340;DHT22;23223;51.006;7.610;2024-02-23T01:56:34;4.90;99.90
37340;DHT22;23223;51.006;7.610;2024-02-23T01:59:02;4.80;99.90
37340;DHT22;23223;51.006;7.610;2024-02-23T02:01:31;4.80;99.90
37340;DHT22;23223;51.006;7.610;2024-02-23T02:03:58;4.70;99.90
37340;DHT22;23223;51.006;7.610;2024-02-23T02:06:24;4.70;99.90
37340;DHT22;23223;51.006;7.610;2024-02-23T02:08:50;4.80;99.90
37340;DHT22;23223;51.006;7.610;2024-02-23T02:11:16;4.80;99.90
37340;DHT22;23223;51.006;7.610;2024-02-23T02:13:41;4.90;99.90
37340;DHT22;23223;51.006;7.610;2024-02-23T02:16:07;4.90;99.90
37340;DHT22;23223;51.006;7.610;2024-02-23T02:18:33;4.90;99.90
37340;DHT22;23223;51.006;7.610;2024-02-23T02:20:58;5.00;99.90
37340;DHT22;23223;51.006;7.610;2024-02-23T02:23:24;5.00;99.90
37340;DHT22;23223;51.006;7.610;2024-02-23T02:25:58;5.00;99.90
37340;DHT22;23223;51.006;7.610;2024-02-23T02:28:25;4.90;99.90
37340;DHT22;23223;51.006;7.610;2024-02-23T02:30:51;4.90;99.90
37340;DHT22;23223;51.006;7.610;2024-02-23T02:46:46;5.00;99.90
37340;DHT22;23223;51.006;7.610;2024-02-23T02:49:11;4.80;99.90
37340;DHT22;23223;51.006;7.610;2024-02-23T02:51:37;4.70;99.90
37340;DHT22;23223;51.006;7.610;2024-02-23T02:54:03;4.60;99.90
37340;DHT22;23223;51.006;7.610;2024-02-23T02:56:28;4.70;99.90
37340;DHT22;23223;51.006;7.610;2024-02-23T02:58:54;4.70;99.90
37340;DHT22;23223;51.006;7.610;2024-02-23T03:01:19;4.70;99.90
37340;DHT22;23223;51.006;7.610;2024-02-23T03:03:45;4.80;99.90
37340;DHT22;23223;51.006;7.610;2024-02-23T03:06:11;4.80;99.90
37340;DHT22;23223;51.006;7.610;2024-02-23T03:08:36;4.70;99.90
37340;DHT22;23223;51.006;7.610;2024-02-23T03:11:02;4.60;99.90
37340;DHT22;23223;51.006;7.610;2024-02-23T03:13:27;4.60;99.90
37340;DHT22;23223;51.006;7.610;2024-02-23T03:15:53;4.50;99.90
37340;DHT22;23223;51.006;7.610;2024-02-23T03:18:19;4.40;99.90
37340;DHT22;23223;51.006;7.610;2024-02-23T03:20:44;4.60;99.90
37340;DHT22;23223;51.006;7.610;2024-02-23T03:23:10;4.80;99.90
37340;DHT22;23223;51.006;7.610;2024-02-23T03:25:36;4.80;99.90
37340;DHT22;23223;51.006;7.610;2024-02-23T03:28:02;5.00;99.90
37340;DHT22;23223;51.006;7.610;2024-02-23T03:30:27;5.00;99.90
37340;DHT22;23223;51.006;7.610;2024-02-23T03:32:53;5.00;99.90
37340;DHT22;23223;51.006;7.610;2024-02-23T03:35:18;5.00;99.90
37340;DHT22;23223;51.006;7.610;2024-02-23T03:37:44;4.90;99.90
37340;DHT22;23223;51.006;7.610;2024-02-23T03:40:10;4.80;99.90
37340;DHT22;23223;51.006;7.610;2024-02-23T03:42:36;4.90;99.90
37340;DHT22;23223;51.006;7.610;2024-02-23T03:45:02;4.80;99.90
37340;DHT22;23223;51.006;7.610;2024-02-23T03:47:27;4.90;99.90
37340;DHT22;23223;51.006;7.610;2024-02-23T03:49:54;4.80;99.90
37340;DHT22;23223;51.006;7.610;2024-02-23T03:52:19;4.90;99.90
37340;DHT22;23223;51.006;7.610;2024-02-23T03:54:45;4.90;99.90
37340;DHT22;23223;51.006;7.610;2024-02-23T03:57:10;5.00;99.90
37340;DHT22;23223;51.006;7.610;2024-02-23T03:59:36;5.00;99.90
37340;DHT22;23223;51.006;7.610;2024-02-23T04:02:03;5.00;99.90
37340;DHT22;23223;51.006;7.610;2024-02-23T04:04:29;5.00;99.90
37340;DHT22;23223;51.006;7.610;2024-02-23T04:06:54;5.00;99.90
37340;DHT22;23223;51.006;7.610;2024-02-23T04:09:20;4.80;99.90
37340;DHT22;23223;51.006;7.610;2024-02-23T04:11:47;4.60;99.90
37340;DHT22;23223;51.006;7.610;2024-02-23T04:14:13;4.50;99.90
37340;DHT22;23223;51.006;7.610;2024-02-23T04:16:39;4.40;99.90
37340;DHT22;23223;51.006;7.610;2024-02-23T04:19:05;4.40;99.90
37340;DHT22;23223;51.006;7.610;2024-02-23T04:21:30;4.50;99.90
37340;DHT22;23223;51.006;7.610;2024-02-23T04:23:56;4.70;99.90
37340;DHT22;23223;51.006;7.610;2024-02-23T04:26:21;4.80;99.90
37340;DHT22;23223;51.006;7.610;2024-02-23T04:28:47;4.90;99.90
37340;DHT22;23223;51.006;7.610;2024-02-23T04:31:13;5.00;99.90
37340;DHT22;23223;51.006;7.610;2024-02-23T04:33:38;5.00;99.90
37340;DHT22;23223;51.006;7.610;2024-02-23T04:36:04;5.10;99.90
37340;DHT22;23223;51.006;7.610;2024-02-23T04:38:31;5.10;99.90
37340;DHT22;23223;51.006;7.610;2024-02-23T04:40:58;5.20;99.90
37340;DHT22;23223;51.006;7.610;2024-02-23T04:43:24;5.00;99.90
37340;DHT22;23223;51.006;7.610;2024-02-23T04:45:51;4.80;99.90
37340;DHT22;23223;51.006;7.610;2024-02-23T04:48:16;4.90;99.90
37340;DHT22;23223;51.006;7.610;2024-02-23T04:50:42;4.90;99.90
37340;DHT22;23223;51.006;7.610;2024-02-23T04:53:07;5.00;99.90
37340;DHT22;23223;51.006;7.610;2024-02-23T04:55:33;5.00;99.90
37340;DHT22;23223;51.006;7.610;2024-02-23T04:57:58;4.90;99.90
37340;DHT22;23223;51.006;7.610;2024-02-23T05:00:24;4.90;99.90
37340;DHT22;23223;51.006;7.610;2024-02-23T05:02:54;5.00;99.90
37340;DHT22;23223;51.006;7.610;2024-02-23T05:05:19;4.90;99.90
37340;DHT22;23223;51.006;7.610;2024-02-23T05:07:47;4.80;99.90
37340;DHT22;23223;51.006;7.610;2024-02-23T05:10:12;4.90;99.90
37340;DHT22;23223;51.006;7.610;2024-02-23T05:12:38;5.00;99.90
37340;DHT22;23223;51.006;7.610;2024-02-23T05:15:04;4.90;99.90
37340;DHT22;23223;51.006;7.610;2024-02-23T05:17:30;4.90;99.90
37340;DHT22;23223;51.006;7.610;2024-02-23T05:19:55;4.80;99.90
37340;DHT22;23223;51.006;7.610;2024-02-23T05:22:21;4.80;99.90
37340;DHT22;23223;51.006;7.610;2024-02-23T05:24:46;4.80;99.90
37340;DHT22;23223;51.006;7.610;2024-02-23T05:27:12;4.80;99.90
37340;DHT22;23223;51.006;7.610;2024-02-23T05:29:38;4.70;99.90
37340;DHT22;23223;51.006;7.610;2024-02-23T05:32:04;4.70;99.90
37340;DHT22;23223;51.006;7.610;2024-02-23T05:34:29;4.70;99.90
37340;DHT22;23223;51.006;7.610;2024-02-23T05:36:55;4.50;99.90
37340;DHT22;23223;51.006;7.610;2024-02-23T05:39:21;4.40;99.90
37340;DHT22;23223;51.006;7.610;2024-02-23T05:41:47;4.50;99.90
37340;DHT22;23223;51.006;7.610;2024-02-23T05:44:12;4.50;99.90
37340;DHT22;23223;51.006;7.610;2024-02-23T05:46:38;4.40;99.90
37340;DHT22;23223;51.006;7.610;2024-02-23T05:49:04;4.40;99.90
37340;DHT22;23223;51.006;7.610;2024-02-23T05:51:30;4.30;99.90
37340;DHT22;23223;51.006;7.610;2024-02-23T05:53:56;4.40;99.90
37340;DHT22;23223;51.006;7.610;2024-02-23T05:56:22;4.30;99.90
37340;DHT22;23223;51.006;7.610;2024-02-23T05:58:49;4.20;99.90
37340;DHT22;23223;51.006;7.610;2024-02-23T06:01:14;4.20;99.90
37340;DHT22;23223;51.006;7.610;2024-02-23T06:03:40;4.10;99.90
37340;DHT22;23223;51.006;7.610;2024-02-23T06:06:08;4.00;99.90
37340;DHT22;23223;51.006;7.610;2024-02-23T06:08:35;3.90;99.90
37340;DHT22;23223;51.006;7.610;2024-02-23T06:11:01;4.00;99.90
37340;DHT22;23223;51.006;7.610;2024-02-23T06:13:28;4.00;99.90
37340;DHT22;23223;51.006;7.610;2024-02-23T06:15:54;3.90;99.90
37340;DHT22;23223;51.006;7.610;2024-02-23T06:18:20;3.90;99.90
37340;DHT22;23223;51.006;7.610;2024-02-23T06:20:45;4.10;99.90
37340;DHT22;23223;51.006;7.610;2024-02-23T06:23:11;4.20;99.90
37340;DHT22;23223;51.006;7.610;2024-02-23T06:25:36;4.30;99.90
37340;DHT22;23223;51.006;7.610;2024-02-23T06:28:02;4.50;99.90
37340;DHT22;23223;51.006;7.610;2024-02-23T06:30:28;4.60;99.90
37340;DHT22;23223;51.006;7.610;2024-02-23T06:32:53;4.60;99.90
37340;DHT22;23223;51.006;7.610;2024-02-23T06:35:19;4.60;99.90
37340;DHT22;23223;51.006;7.610;2024-02-23T06:37:45;4.70;99.90
37340;DHT22;23223;51.006;7.610;2024-02-23T06:40:10;4.70;99.90
37340;DHT22;23223;51.006;7.610;2024-02-23T06:42:36;4.80;99.90
37340;DHT22;23223;51.006;7.610;2024-02-23T06:45:01;4.60;99.90
37340;DHT22;23223;51.006;7.610;2024-02-23T06:47:27;4.40;99.90
37340;DHT22;23223;51.006;7.610;2024-02-23T06:49:53;4.30;99.90
37340;DHT22;23223;51.006;7.610;2024-02-23T06:52:18;4.20;99.90
37340;DHT22;23223;51.006;7.610;2024-02-23T06:54:44;4.20;99.90
37340;DHT22;23223;51.006;7.610;2024-02-23T06:57:10;4.20;99.90
37340;DHT22;23223;51.006;7.610;2024-02-23T06:59:36;4.40;99.90
37340;DHT22;23223;51.006;7.610;2024-02-23T07:02:02;4.50;99.90
37340;DHT22;23223;51.006;7.610;2024-02-23T07:04:29;4.70;99.90
37340;DHT22;23223;51.006;7.610;2024-02-23T07:06:55;4.70;99.90
37340;DHT22;23223;51.006;7.610;2024-02-23T07:09:21;4.70;99.90
37340;DHT22;23223;51.006;7.610;2024-02-23T07:11:46;4.80;99.90
37340;DHT22;23223;51.006;7.610;2024-02-23T07:14:12;4.90;99.90
37340;DHT22;23223;51.006;7.610;2024-02-23T07:16:40;4.70;99.90
37340;DHT22;23223;51.006;7.610;2024-02-23T07:19:06;4.60;99.90
37340;DHT22;23223;51.006;7.610;2024-02-23T07:21:32;4.40;99.90
37340;DHT22;23223;51.006;7.610;2024-02-23T07:23:58;4.50;99.90
37340;DHT22;23223;51.006;7.610;2024-02-23T07:26:24;4.70;99.90
37340;DHT22;23223;51.006;7.610;2024-02-23T07:28:49;4.90;99.90
37340;DHT22;23223;51.006;7.610;2024-02-23T07:31:15;5.00;99.90
37340;DHT22;23223;51.006;7.610;2024-02-23T07:33:42;5.10;99.90
37340;DHT22;23223;51.006;7.610;2024-02-23T07:36:14;5.20;99.90
37340;DHT22;23223;51.006;7.610;2024-02-23T07:38:39;5.10;99.90
37340;DHT22;23223;51.006;7.610;2024-02-23T07:41:05;5.20;99.90
37340;DHT22;23223;51.006;7.610;2024-02-23T07:43:31;5.30;99.90
37340;DHT22;23223;51.006;7.610;2024-02-23T07:45:56;5.70;99.90
37340;DHT22;23223;51.006;7.610;2024-02-23T07:48:22;6.00;99.90
37340;DHT22;23223;51.006;7.610;2024-02-23T07:50:47;6.10;99.90
37340;DHT22;23223;51.006;7.610;2024-02-23T07:53:13;6.30;99.90
37340;DHT22;23223;51.006;7.610;2024-02-23T07:55:38;6.60;99.90
37340;DHT22;23223;51.006;7.610;2024-02-23T07:58:04;6.70;99.90
37340;DHT22;23223;51.006;7.610;2024-02-23T08:00:30;6.70;99.90
37340;DHT22;23223;51.006;7.610;2024-02-23T08:02:56;6.70;99.90
37340;DHT22;23223;51.006;7.610;2024-02-23T08:05:25;6.60;99.90
37340;DHT22;23223;51.006;7.610;2024-02-23T08:07:51;6.60;99.90
37340;DHT22;23223;51.006;7.610;2024-02-23T08:10:17;6.40;99.90
37340;DHT22;23223;51.006;7.610;2024-02-23T08:12:42;6.40;99.90
37340;DHT22;23223;51.006;7.610;2024-02-23T08:15:08;6.20;99.90
37340;DHT22;23223;51.006;7.610;2024-02-23T08:17:35;6.10;99.90
37340;DHT22;23223;51.006;7.610;2024-02-23T08:20:01;6.20;99.90
37340;DHT22;23223;51.006;7.610;2024-02-23T08:22:26;6.20;99.90
37340;DHT22;23223;51.006;7.610;2024-02-23T08:24:52;6.30;99.90
37340;DHT22;23223;51.006;7.610;2024-02-23T08:27:17;6.20;99.90
37340;DHT22;23223;51.006;7.610;2024-02-23T08:29:43;6.00;99.90
37340;DHT22;23223;51.006;7.610;2024-02-23T08:32:09;5.80;99.90
37340;DHT22;23223;51.006;7.610;2024-02-23T08:34:35;5.80;99.90
37340;DHT22;23223;51.006;7.610;2024-02-23T08:37:01;6.10;99.90
37340;DHT22;23223;51.006;7.610;2024-02-23T08:39:27;6.40;99.90
37340;DHT22;23223;51.006;7.610;2024-02-23T08:41:53;6.50;99.90
37340;DHT22;23223;51.006;7.610;2024-02-23T08:44:18;6.60;99.90
37340;DHT22;23223;51.006;7.610;2024-02-23T08:46:44;6.60;99.90
37340;DHT22;23223;51.006;7.610;2024-02-23T08:49:09;6.40;99.90
37340;DHT22;23223;51.006;7.610;2024-02-23T08:51:35;6.50;99.90
37340;DHT22;23223;51.006;7.610;2024-02-23T08:54:01;6.70;99.90
37340;DHT22;23223;51.006;7.610;2024-02-23T08:56:30;6.80;99.90
37340;DHT22;23223;51.006;7.610;2024-02-23T08:58:55;6.80;99.90
37340;DHT22;23223;51.006;7.610;2024-02-23T09:01:21;6.80;99.90
37340;DHT22;23223;51.006;7.610;2024-02-23T09:03:46;6.60;99.90
37340;DHT22;23223;51.006;7.610;2024-02-23T09:06:12;6.50;99.90
37340;DHT22;23223;51.006;7.610;2024-02-23T09:08:38;6.50;99.90
37340;DHT22;23223;51.006;7.610;2024-02-23T09:11:03;6.50;99.90
37340;DHT22;23223;51.006;7.610;2024-02-23T09:13:29;6.50;99.90
37340;DHT22;23223;51.006;7.610;2024-02-23T09:15:55;6.40;99.90
37340;DHT22;23223;51.006;7.610;2024-02-23T09:18:21;6.20;99.90
37340;DHT22;23223;51.006;7.610;2024-02-23T09:20:46;6.40;99.90
37340;DHT22;23223;51.006;7.610;2024-02-23T09:23:12;6.60;99.90
37340;DHT22;23223;51.006;7.610;2024-02-23T09:25:39;6.70;99.90
37340;DHT22;23223;51.006;7.610;2024-02-23T09:28:05;6.60;99.90
37340;DHT22;23223;51.006;7.610;2024-02-23T09:30:31;6.60;99.90
37340;DHT22;23223;51.006;7.610;2024-02-23T09:32:56;6.60;99.90
37340;DHT22;23223;51.006;7.610;2024-02-23T09:35:22;6.70;99.90
37340;DHT22;23223;51.006;7.610;2024-02-23T09:37:47;6.90;99.90
37340;DHT22;23223;51.006;7.610;2024-02-23T09:40:14;7.20;99.90
37340;DHT22;23223;51.006;7.610;2024-02-23T09:42:41;7.30;99.90
37340;DHT22;23223;51.006;7.610;2024-02-23T09:45:08;7.40;99.90
37340;DHT22;23223;51.006;7.610;2024-02-23T09:47:36;7.30;99.90
37340;DHT22;23223;51.006;7.610;2024-02-23T09:50:03;7.10;99.90
37340;DHT22;23223;51.006;7.610;2024-02-23T09:52:29;7.00;99.90
37340;DHT22;23223;51.006;7.610;2024-02-23T09:54:55;7.10;99.90
37340;DHT22;23223;51.006;7.610;2024-02-23T09:57:21;7.20;99.90
37340;DHT22;23223;51.006;7.610;2024-02-23T09:59:48;7.30;99.90
37340;DHT22;23223;51.006;7.610;2024-02-23T10:02:17;7.30;99.90
37340;DHT22;23223;51.006;7.610;2024-02-23T10:04:43;7.20;99.90
37340;DHT22;23223;51.006;7.610;2024-02-23T10:07:09;7.10;99.90
37340;DHT22;23223;51.006;7.610;2024-02-23T10:09:36;6.90;99.90
37340;DHT22;23223;51.006;7.610;2024-02-23T10:12:02;6.60;99.90
37340;DHT22;23223;51.006;7.610;2024-02-23T10:14:28;6.70;99.90
37340;DHT22;23223;51.006;7.610;2024-02-23T10:16:54;7.00;99.90
37340;DHT22;23223;51.006;7.610;2024-02-23T10:19:21;7.30;99.90
37340;DHT22;23223;51.006;7.610;2024-02-23T10:21:47;7.80;99.90
37340;DHT22;23223;51.006;7.610;2024-02-23T10:24:15;8.20;99.90
37340;DHT22;23223;51.006;7.610;2024-02-23T10:26:41;8.20;99.90
37340;DHT22;23223;51.006;7.610;2024-02-23T10:29:07;8.00;99.90
37340;DHT22;23223;51.006;7.610;2024-02-23T10:31:35;7.80;99.90
37340;DHT22;23223;51.006;7.610;2024-02-23T10:34:07;7.50;99.90
37340;DHT22;23223;51.006;7.610;2024-02-23T10:36:42;7.30;99.90
37340;DHT22;23223;51.006;7.610;2024-02-23T10:39:16;7.10;99.90
37340;DHT22;23223;51.006;7.610;2024-02-23T10:41:47;6.90;99.90
37340;DHT22;23223;51.006;7.610;2024-02-23T10:44:17;6.90;99.90
37340;DHT22;23223;51.006;7.610;2024-02-23T10:46:44;6.90;99.90
37340;DHT22;23223;51.006;7.610;2024-02-23T10:49:11;7.00;99.90
37340;DHT22;23223;51.006;7.610;2024-02-23T10:51:39;7.10;99.90
37340;DHT22;23223;51.006;7.610;2024-02-23T10:54:06;6.90;99.90
37340;DHT22;23223;51.006;7.610;2024-02-23T10:56:32;6.90;99.90
37340;DHT22;23223;51.006;7.610;2024-02-23T10:59:00;6.90;99.90
37340;DHT22;23223;51.006;7.610;2024-02-23T11:01:28;6.80;99.90
37340;DHT22;23223;51.006;7.610;2024-02-23T11:03:54;6.90;99.90
37340;DHT22;23223;51.006;7.610;2024-02-23T11:06:27;7.00;99.90
37340;DHT22;23223;51.006;7.610;2024-02-23T11:08:53;7.10;99.90
37340;DHT22;23223;51.006;7.610;2024-02-23T11:11:19;7.10;99.90
37340;DHT22;23223;51.006;7.610;2024-02-23T11:13:45;7.30;99.90
37340;DHT22;23223;51.006;7.610;2024-02-23T11:16:21;7.60;99.90
37340;DHT22;23223;51.006;7.610;2024-02-23T11:18:48;8.00;99.90
37340;DHT22;23223;51.006;7.610;2024-02-23T11:21:14;8.20;99.90
37340;DHT22;23223;51.006;7.610;2024-02-23T11:23:49;8.30;99.90
37340;DHT22;23223;51.006;7.610;2024-02-23T11:26:17;8.20;99.90
37340;DHT22;23223;51.006;7.610;2024-02-23T11:28:50;8.10;99.90
37340;DHT22;23223;51.006;7.610;2024-02-23T11:31:23;8.00;99.90
37340;DHT22;23223;51.006;7.610;2024-02-23T11:33:54;8.30;99.90
37340;DHT22;23223;51.006;7.610;2024-02-23T11:36:31;8.90;99.90
37340;DHT22;23223;51.006;7.610;2024-02-23T11:38:59;9.50;99.90
37340;DHT22;23223;51.006;7.610;2024-02-23T11:41:26;9.50;99.90
37340;DHT22;23223;51.006;7.610;2024-02-23T11:43:52;9.90;99.90
37340;DHT22;23223;51.006;7.610;2024-02-23T11:46:19;10.30;99.90
37340;DHT22;23223;51.006;7.610;2024-02-23T11:48:45;10.50;99.90
37340;DHT22;23223;51.006;7.610;2024-02-23T11:51:13;10.80;99.90
37340;DHT22;23223;51.006;7.610;2024-02-23T11:53:39;10.90;99.90
37340;DHT22;23223;51.006;7.610;2024-02-23T11:56:05;10.60;92.30
37340;DHT22;23223;51.006;7.610;2024-02-23T11:58:34;10.70;88.00
37340;DHT22;23223;51.006;7.610;2024-02-23T12:01:00;11.50;99.90
37340;DHT22;23223;51.006;7.610;2024-02-23T12:03:28;12.00;42.90
37340;DHT22;23223;51.006;7.610;2024-02-23T12:05:56;12.90;96.90
37340;DHT22;23223;51.006;7.610;2024-02-23T12:08:23;13.10;50.50
37340;DHT22;23223;51.006;7.610;2024-02-23T12:10:49;13.70;26.80
37340;DHT22;23223;51.006;7.610;2024-02-23T12:13:14;13.50;4.40
37340;DHT22;23223;51.006;7.610;2024-02-23T12:15:40;13.90;8.20
37340;DHT22;23223;51.006;7.610;2024-02-23T12:18:06;14.60;13.80
37340;DHT22;23223;51.006;7.610;2024-02-23T12:20:34;15.00;46.30
37340;DHT22;23223;51.006;7.610;2024-02-23T12:23:01;14.30;89.10
37340;DHT22;23223;51.006;7.610;2024-02-23T12:25:26;13.80;12.60
37340;DHT22;23223;51.006;7.610;2024-02-23T12:27:55;13.90;16.40
37340;DHT22;23223;51.006;7.610;2024-02-23T12:30:22;14.30;49.50
37340;DHT22;23223;51.006;7.610;2024-02-23T12:32:48;14.40;1.00
37340;DHT22;23223;51.006;7.610;2024-02-23T12:35:14;14.90;65.30
37340;DHT22;23223;51.006;7.610;2024-02-23T12:37:40;15.00;1.00
37340;DHT22;23223;51.006;7.610;2024-02-23T12:40:07;14.50;1.00
37340;DHT22;23223;51.006;7.610;2024-02-23T12:42:34;13.70;2.10
37340;DHT22;23223;51.006;7.610;2024-02-23T12:45:00;13.00;67.50
37340;DHT22;23223;51.006;7.610;2024-02-23T12:47:26;12.30;79.90
37340;DHT22;23223;51.006;7.610;2024-02-23T12:49:51;11.40;48.20
37340;DHT22;23223;51.006;7.610;2024-02-23T12:52:17;10.90;68.30
37340;DHT22;23223;51.006;7.610;2024-02-23T12:54:43;10.30;85.70
37340;DHT22;23223;51.006;7.610;2024-02-23T12:57:09;9.70;98.00
37340;DHT22;23223;51.006;7.610;2024-02-23T12:59:34;9.30;99.90
37340;DHT22;23223;51.006;7.610;2024-02-23T13:02:00;9.10;99.90
37340;DHT22;23223;51.006;7.610;2024-02-23T13:04:25;9.00;99.90
37340;DHT22;23223;51.006;7.610;2024-02-23T13:06:53;8.90;99.90
37340;DHT22;23223;51.006;7.610;2024-02-23T13:09:19;8.90;99.90
37340;DHT22;23223;51.006;7.610;2024-02-23T13:11:45;8.90;99.90
37340;DHT22;23223;51.006;7.610;2024-02-23T13:14:13;8.90;99.90
37340;DHT22;23223;51.006;7.610;2024-02-23T13:16:41;8.60;99.90
37340;DHT22;23223;51.006;7.610;2024-02-23T13:19:07;8.30;99.90
37340;DHT22;23223;51.006;7.610;2024-02-23T13:21:34;8.20;99.90
37340;DHT22;23223;51.006;7.610;2024-02-23T13:23:59;8.30;99.90
37340;DHT22;23223;51.006;7.610;2024-02-23T13:26:25;8.30;99.90
37340;DHT22;23223;51.006;7.610;2024-02-23T13:28:50;8.10;99.90
37340;DHT22;23223;51.006;7.610;2024-02-23T13:31:16;7.90;99.90
37340;DHT22;23223;51.006;7.610;2024-02-23T13:33:42;8.00;99.90
37340;DHT22;23223;51.006;7.610;2024-02-23T13:36:09;8.00;99.90
37340;DHT22;23223;51.006;7.610;2024-02-23T13:38:35;8.00;99.90
37340;DHT22;23223;51.006;7.610;2024-02-23T13:41:04;7.90;99.90
37340;DHT22;23223;51.006;7.610;2024-02-23T13:43:30;7.80;99.90
37340;DHT22;23223;51.006;7.610;2024-02-23T13:45:55;7.80;99.90
37340;DHT22;23223;51.006;7.610;2024-02-23T13:48:22;7.90;99.90
37340;DHT22;23223;51.006;7.610;2024-02-23T13:50:48;8.50;99.90
37340;DHT22;23223;51.006;7.610;2024-02-23T13:53:14;8.60;99.90
37340;DHT22;23223;51.006;7.610;2024-02-23T13:55:40;8.70;99.90
37340;DHT22;23223;51.006;7.610;2024-02-23T13:58:07;8.90;99.90
37340;DHT22;23223;51.006;7.610;2024-02-23T14:00:33;9.30;99.90
37340;DHT22;23223;51.006;7.610;2024-02-23T14:02:59;9.40;99.90
37340;DHT22;23223;51.006;7.610;2024-02-23T14:05:24;9.50;99.90
37340;DHT22;23223;51.006;7.610;2024-02-23T14:07:54;9.60;99.90
37340;DHT22;23223;51.006;7.610;2024-02-23T14:10:20;9.60;99.90
37340;DHT22;23223;51.006;7.610;2024-02-23T14:12:46;9.90;99.90
37340;DHT22;23223;51.006;7.610;2024-02-23T14:15:11;10.00;99.90
37340;DHT22;23223;51.006;7.610;2024-02-23T14:17:38;10.10;99.90
37340;DHT22;23223;51.006;7.610;2024-02-23T14:20:04;10.60;99.90
37340;DHT22;23223;51.006;7.610;2024-02-23T14:22:30;11.30;99.90
37340;DHT22;23223;51.006;7.610;2024-02-23T14:24:57;11.60;95.10
37340;DHT22;23223;51.006;7.610;2024-02-23T14:27:22;12.00;99.90
37340;DHT22;23223;51.006;7.610;2024-02-23T14:29:48;12.40;77.90
37340;DHT22;23223;51.006;7.610;2024-02-23T14:32:18;12.20;64.30
37340;DHT22;23223;51.006;7.610;2024-02-23T14:34:44;11.90;82.80
37340;DHT22;23223;51.006;7.610;2024-02-23T14:37:10;11.10;99.90
37340;DHT22;23223;51.006;7.610;2024-02-23T14:39:35;11.00;99.90
37340;DHT22;23223;51.006;7.610;2024-02-23T14:42:01;11.10;99.90
37340;DHT22;23223;51.006;7.610;2024-02-23T14:44:28;11.60;99.90
37340;DHT22;23223;51.006;7.610;2024-02-23T14:46:54;12.10;99.90
37340;DHT22;23223;51.006;7.610;2024-02-23T14:49:30;12.10;84.70
37340;DHT22;23223;51.006;7.610;2024-02-23T14:51:59;12.20;99.90
37340;DHT22;23223;51.006;7.610;2024-02-23T14:54:25;12.80;94.70
37340;DHT22;23223;51.006;7.610;2024-02-23T14:56:51;12.70;66.90
37340;DHT22;23223;51.006;7.610;2024-02-23T14:59:16;12.40;97.30
37340;DHT22;23223;51.006;7.610;2024-02-23T15:01:42;12.10;99.90
37340;DHT22;23223;51.006;7.610;2024-02-23T15:04:08;12.10;63.90
37340;DHT22;23223;51.006;7.610;2024-02-23T15:06:34;12.30;50.60
37340;DHT22;23223;51.006;7.610;2024-02-23T15:09:00;12.40;74.00
37340;DHT22;23223;51.006;7.610;2024-02-23T15:11:26;12.30;76.40
37340;DHT22;23223;51.006;7.610;2024-02-23T15:13:52;12.20;81.20
37340;DHT22;23223;51.006;7.610;2024-02-23T15:16:23;12.00;90.90
37340;DHT22;23223;51.006;7.610;2024-02-23T15:18:49;12.20;99.90
37340;DHT22;23223;51.006;7.610;2024-02-23T15:21:15;12.40;54.80
37340;DHT22;23223;51.006;7.610;2024-02-23T15:23:43;12.70;38.50
37340;DHT22;23223;51.006;7.610;2024-02-23T15:26:08;12.70;54.20
37340;DHT22;23223;51.006;7.610;2024-02-23T15:28:34;12.50;95.40
37340;DHT22;23223;51.006;7.610;2024-02-23T15:31:00;11.50;69.80
37340;DHT22;23223;51.006;7.610;2024-02-23T15:33:28;10.80;77.70
37340;DHT22;23223;51.006;7.610;2024-02-23T15:35:54;10.40;99.90
37340;DHT22;23223;51.006;7.610;2024-02-23T15:38:20;9.80;99.90
37340;DHT22;23223;51.006;7.610;2024-02-23T15:40:45;9.50;99.90
37340;DHT22;23223;51.006;7.610;2024-02-23T15:43:11;9.40;99.90
37340;DHT22;23223;51.006;7.610;2024-02-23T15:45:36;9.40;99.90
37340;DHT22;23223;51.006;7.610;2024-02-23T15:48:02;9.30;99.90
37340;DHT22;23223;51.006;7.610;2024-02-23T15:50:28;9.20;99.90
37340;DHT22;23223;51.006;7.610;2024-02-23T15:52:56;8.90;99.90